Time;durP1;ratioP1;P1;durP2;ratioP2;P2;SDS_P1;SDS_P2;PMS_P1;PMS_P2;Temp;Humidity;BMP_temperature;BMP_pressure;BME280_temperature;BME280_humidity;BME280_pressure;Samples;Min_cycle;Max_cycle;Signal;HPM_P1;HPM_P2
2023/10/24 00:00:17;;;;;;;28.60;14.83;;;;;;;-148.15;100.00;61821.78;4962107;29;20043;-92
2023/10/24 00:02:43;;;;;;;27.13;14.43;;;;;;;-148.15;100.00;61821.78;4979216;28;20084;-93
2023/10/24 00:05:09;;;;;;;24.33;13.30;;;;;;;-148.15;100.00;61821.78;4983061;28;20027;-92
2023/10/24 00:07:35;;;;;;;25.80;13.55;;;;;;;-148.15;100.00;61821.78;4982751;28;20019;-93
2023/10/24 00:10:02;;;;;;;19.67;12.97;;;;;;;-148.15;100.00;61821.78;4978823;28;20045;-92
2023/10/24 00:12:28;;;;;;;22.73;13.20;;;;;;;-148.15;100.00;61821.78;4980211;28;20090;-92
2023/10/24 00:14:56;;;;;;;21.80;12.27;;;;;;;-148.15;100.00;61821.78;4990917;28;20022;-92
2023/10/24 00:17:22;;;;;;;28.90;12.17;;;;;;;-148.15;100.00;61821.78;4974459;28;20058;-93
2023/10/24 00:19:48;;;;;;;21.65;12.35;;;;;;;-148.15;100.00;61821.78;4981638;28;20030;-92
2023/10/24 00:22:13;;;;;;;24.10;12.53;;;;;;;-148.15;100.00;61821.78;4989166;28;20023;-91
2023/10/24 00:24:39;;;;;;;24.60;10.73;;;;;;;-148.15;100.00;61821.78;4976609;28;20035;-92
2023/10/24 00:27:04;;;;;;;19.00;10.53;;;;;;;-148.15;100.00;61821.78;4968880;29;20027;-92
2023/10/24 00:29:29;;;;;;;17.93;10.10;;;;;;;-148.15;100.00;61821.78;4962172;28;20025;-93
2023/10/24 00:31:54;;;;;;;19.60;9.80;;;;;;;-148.15;100.00;61821.78;4981690;28;20042;-92
2023/10/24 00:34:20;;;;;;;23.20;10.27;;;;;;;-148.15;100.00;61821.78;4975946;28;20027;-93
2023/10/24 00:36:45;;;;;;;18.40;9.80;;;;;;;-148.15;100.00;61821.78;4977490;28;20031;-92
2023/10/24 00:39:11;;;;;;;17.38;9.93;;;;;;;-148.15;100.00;61821.78;4990639;28;20482;-92
2023/10/24 00:41:36;;;;;;;19.20;9.20;;;;;;;-148.15;100.00;61821.78;4975431;28;20033;-91
2023/10/24 00:44:02;;;;;;;16.60;9.27;;;;;;;-148.15;100.00;61821.78;4974029;28;20030;-93
2023/10/24 00:46:31;;;;;;;17.42;9.23;;;;;;;-148.15;100.00;61821.78;4973006;28;20485;-92
2023/10/24 00:48:57;;;;;;;15.87;9.03;;;;;;;-148.15;100.00;61821.78;4956654;29;20027;-92
2023/10/24 00:51:22;;;;;;;15.43;8.02;;;;;;;-148.15;100.00;61821.78;4956040;29;20027;-92
2023/10/24 00:53:49;;;;;;;12.17;7.43;;;;;;;-148.15;100.00;61821.78;4970361;28;20138;-93
2023/10/24 00:56:18;;;;;;;15.07;7.43;;;;;;;-148.15;100.00;61821.78;4956912;29;20019;-92
2023/10/24 00:58:44;;;;;;;14.50;7.10;;;;;;;-148.15;100.00;61821.78;4977999;23;20070;-92
2023/10/24 01:01:13;;;;;;;13.20;6.32;;;;;;;-148.15;100.00;61821.78;4975067;28;20054;-92
2023/10/24 01:03:39;;;;;;;19.53;6.97;;;;;;;-148.15;100.00;61821.78;4974508;28;20074;-92
2023/10/24 01:06:09;;;;;;;11.05;6.55;;;;;;;-148.15;100.00;61821.78;4956842;28;20034;-92
2023/10/24 01:08:34;;;;;;;10.35;6.10;;;;;;;-148.15;100.00;61821.78;4936202;29;20608;-92
2023/10/24 01:11:00;;;;;;;9.53;5.63;;;;;;;-148.15;100.00;61821.78;4950035;29;20039;-91
2023/10/24 01:13:25;;;;;;;10.80;5.97;;;;;;;-148.15;100.00;61821.78;4955129;29;20055;-93
2023/10/24 01:15:50;;;;;;;12.60;5.60;;;;;;;-148.15;100.00;61821.78;4946314;29;20027;-93
2023/10/24 01:18:16;;;;;;;9.77;6.70;;;;;;;-148.15;100.00;61821.78;4947075;29;20044;-91
2023/10/24 01:20:41;;;;;;;11.70;5.57;;;;;;;-148.15;100.00;61821.78;4931167;29;20036;-92
2023/10/24 01:23:11;;;;;;;10.20;5.50;;;;;;;-148.15;100.00;61821.78;4929945;29;20020;-92
2023/10/24 01:25:41;;;;;;;16.48;5.43;;;;;;;-148.15;100.00;61821.78;4936328;29;20019;-93
2023/10/24 01:28:08;;;;;;;9.15;5.53;;;;;;;-148.15;100.00;61821.78;4968075;23;20418;-91
2023/10/24 01:30:34;;;;;;;8.02;5.40;;;;;;;-148.15;100.00;61821.78;4973748;28;20469;-91
2023/10/24 01:33:01;;;;;;;9.43;5.70;;;;;;;-148.15;100.00;61821.78;4960688;28;20562;-91
2023/10/24 01:35:31;;;;;;;9.33;5.30;;;;;;;-148.15;100.00;61821.78;4967071;28;20034;-91
2023/10/24 01:37:57;;;;;;;14.50;6.05;;;;;;;-148.15;100.00;61821.78;4965975;28;20027;-92
2023/10/24 01:40:22;;;;;;;9.47;6.00;;;;;;;-148.15;100.00;61821.78;4961370;29;20031;-92
2023/10/24 01:42:48;;;;;;;9.18;6.03;;;;;;;-148.15;100.00;61821.78;4954138;28;20031;-92
2023/10/24 01:45:17;;;;;;;7.90;5.28;;;;;;;-148.15;100.00;61821.78;4954147;29;20042;-91
2023/10/24 01:47:43;;;;;;;12.93;5.53;;;;;;;-148.15;100.00;61821.78;4953573;28;20027;-91
2023/10/24 01:50:08;;;;;;;8.25;5.30;;;;;;;-148.15;100.00;61821.78;4954716;28;20047;-92
2023/10/24 01:52:34;;;;;;;8.53;5.37;;;;;;;-148.15;100.00;61821.78;4953992;29;20038;-91
2023/10/24 01:55:00;;;;;;;8.85;5.28;;;;;;;-148.15;100.00;61821.78;4953289;28;20427;-92
2023/10/24 01:57:25;;;;;;;9.77;5.33;;;;;;;-148.15;100.00;61821.78;4953395;28;20055;-92
2023/10/24 01:59:51;;;;;;;7.45;4.78;;;;;;;-148.15;100.00;61821.78;4953327;28;20078;-92
2023/10/24 02:02:16;;;;;;;7.43;4.93;;;;;;;-148.15;100.00;61821.78;4936440;29;20046;-92
2023/10/24 02:04:41;;;;;;;10.43;5.17;;;;;;;-148.15;100.00;61821.78;4936427;29;20426;-91
2023/10/24 02:07:07;;;;;;;6.70;4.47;;;;;;;-148.15;100.00;61821.78;4951790;28;20027;-92
2023/10/24 02:09:32;;;;;;;8.45;5.10;;;;;;;-148.15;100.00;61821.78;4953164;29;20507;-92
2023/10/24 02:12:01;;;;;;;10.23;5.53;;;;;;;-148.15;100.00;61821.78;4953228;28;20024;-91
2023/10/24 02:14:29;;;;;;;8.30;4.22;;;;;;;-148.15;100.00;61821.78;4936463;29;20023;-92
2023/10/24 02:16:55;;;;;;;5.97;4.50;;;;;;;-148.15;100.00;61821.78;4954804;28;20382;-92
2023/10/24 02:19:21;;;;;;;11.63;4.40;;;;;;;-148.15;100.00;61821.78;4957081;29;20295;-92
2023/10/24 02:21:47;;;;;;;4.75;4.00;;;;;;;-148.15;100.00;61821.78;4939642;29;20031;-91
2023/10/24 02:24:12;;;;;;;8.33;4.60;;;;;;;-148.15;100.00;61821.78;4956975;28;20485;-92
2023/10/24 02:26:38;;;;;;;8.23;4.63;;;;;;;-148.15;100.00;61821.78;4961617;28;20015;-92
2023/10/24 02:29:03;;;;;;;6.20;4.10;;;;;;;-148.15;100.00;61821.78;4957701;29;20032;-92
2023/10/24 02:31:29;;;;;;;5.90;4.10;;;;;;;-148.15;100.00;61821.78;4956724;28;20038;-91
2023/10/24 02:33:54;;;;;;;5.45;4.10;;;;;;;-148.15;100.00;61821.78;4956778;29;20094;-91
2023/10/24 02:36:19;;;;;;;6.17;4.00;;;;;;;-148.15;100.00;61821.78;4938954;28;20532;-92
2023/10/24 02:38:44;;;;;;;5.77;3.90;;;;;;;-148.15;100.00;61821.78;4956502;28;20038;-90
2023/10/24 02:41:10;;;;;;;4.70;3.60;;;;;;;-148.15;100.00;61821.78;4953913;28;20058;-92
2023/10/24 02:43:35;;;;;;;5.40;3.57;;;;;;;-148.15;100.00;61821.78;4940531;29;20043;-91
2023/10/24 02:46:05;;;;;;;5.53;3.97;;;;;;;-148.15;100.00;61821.78;4956214;28;20038;-92
2023/10/24 02:48:31;;;;;;;6.30;3.77;;;;;;;-148.15;100.00;61821.78;4939038;29;20323;-92
2023/10/24 02:50:57;;;;;;;5.65;3.58;;;;;;;-148.15;100.00;61821.78;4956140;28;20061;-90
2023/10/24 02:53:23;;;;;;;5.57;3.58;;;;;;;-148.15;100.00;61821.78;4956892;28;20027;-91
2023/10/24 02:55:49;;;;;;;5.93;3.25;;;;;;;-148.15;100.00;61821.78;4938513;29;20038;-92
2023/10/24 02:58:15;;;;;;;6.23;4.60;;;;;;;-148.15;100.00;61821.78;4956383;28;20392;-91
2023/10/24 03:00:41;;;;;;;5.93;4.13;;;;;;;-148.15;100.00;61821.78;4938994;29;20023;-91
2023/10/24 03:03:07;;;;;;;8.35;4.80;;;;;;;-148.15;100.00;61821.78;4956612;29;20033;-91
2023/10/24 03:05:32;;;;;;;6.67;3.93;;;;;;;-148.15;100.00;61821.78;4955829;29;20034;-90
2023/10/24 03:07:58;;;;;;;6.00;4.53;;;;;;;-148.15;100.00;61821.78;4964371;28;20545;-91
2023/10/24 03:10:26;;;;;;;4.83;4.13;;;;;;;-148.15;100.00;61821.78;4963684;28;20551;-91
2023/10/24 03:12:52;;;;;;;6.68;4.10;;;;;;;-148.15;100.00;61821.78;4938984;29;20023;-91
2023/10/24 03:15:18;;;;;;;5.70;3.65;;;;;;;-148.15;100.00;61821.78;4955866;28;20023;-91
2023/10/24 03:17:43;;;;;;;7.57;4.20;;;;;;;-148.15;100.00;61821.78;4973160;23;20050;-90
2023/10/24 03:20:09;;;;;;;6.63;4.35;;;;;;;-148.15;100.00;61821.78;4973585;28;20041;-91
2023/10/24 03:22:35;;;;;;;4.83;4.10;;;;;;;-148.15;100.00;61821.78;4957959;28;20023;-92
2023/10/24 03:25:04;;;;;;;5.82;3.85;;;;;;;-148.15;100.00;61821.78;4957839;28;20054;-91
2023/10/24 03:27:36;;;;;;;6.32;3.78;;;;;;;-148.15;100.00;61821.78;4993716;23;21058;-90
2023/10/24 03:30:01;;;;;;;4.87;3.70;;;;;;;-148.15;100.00;61821.78;4956217;28;20398;-90
2023/10/24 03:32:27;;;;;;;5.18;3.83;;;;;;;-148.15;100.00;61821.78;4968460;28;20034;-92
2023/10/24 03:34:53;;;;;;;7.23;3.93;;;;;;;-148.15;100.00;61821.78;4971123;28;20061;-92
2023/10/24 03:37:20;;;;;;;4.83;3.80;;;;;;;-148.15;100.00;61821.78;4974706;28;20960;-91
2023/10/24 03:39:45;;;;;;;4.30;3.53;;;;;;;-148.15;100.00;61821.78;4956379;28;20101;-91
2023/10/24 03:42:13;;;;;;;5.07;3.90;;;;;;;-148.15;100.00;61821.78;4964585;28;20035;-91
2023/10/24 03:44:39;;;;;;;4.78;3.78;;;;;;;-148.15;100.00;61821.78;4973725;28;20073;-91
2023/10/24 03:47:05;;;;;;;5.15;3.80;;;;;;;-148.15;100.00;61821.78;4981051;23;20103;-91
2023/10/24 03:49:31;;;;;;;7.43;4.33;;;;;;;-148.15;100.00;61821.78;4974326;28;20185;-90
2023/10/24 03:51:57;;;;;;;6.93;4.05;;;;;;;-148.15;100.00;61821.78;4957521;28;20035;-90
2023/10/24 03:54:22;;;;;;;5.90;4.13;;;;;;;-148.15;100.00;61821.78;4973897;28;20122;-91
2023/10/24 03:56:48;;;;;;;6.00;4.20;;;;;;;-148.15;100.00;61821.78;4975263;28;20035;-90
2023/10/24 03:59:13;;;;;;;5.33;3.97;;;;;;;-148.15;100.00;61821.78;4969839;28;20367;-91
2023/10/24 04:01:42;;;;;;;5.13;4.00;;;;;;;-148.15;100.00;61821.78;4973945;28;20341;-90
2023/10/24 04:04:07;;;;;;;9.35;4.22;;;;;;;-148.15;100.00;61821.78;4956972;28;20025;-90
2023/10/24 04:06:36;;;;;;;5.30;3.97;;;;;;;-148.15;100.00;61821.78;4952743;28;20391;-87
2023/10/24 04:09:05;;;;;;;5.10;4.13;;;;;;;-148.15;100.00;61821.78;4972052;28;20533;-87
2023/10/24 04:11:34;;;;;;;4.60;4.10;;;;;;;-148.15;100.00;61821.78;4983607;28;20027;-87
2023/10/24 04:13:59;;;;;;;8.40;4.45;;;;;;;-148.15;100.00;61821.78;4983342;28;20034;-87
2023/10/24 04:16:25;;;;;;;7.57;4.60;;;;;;;-148.15;100.00;61821.78;4958074;28;20102;-88
2023/10/24 04:18:50;;;;;;;5.40;4.03;;;;;;;-148.15;100.00;61821.78;4973929;28;20361;-87
2023/10/24 04:21:16;;;;;;;5.37;4.50;;;;;;;-148.15;100.00;61821.78;4977286;28;20449;-88
2023/10/24 04:23:42;;;;;;;7.80;4.22;;;;;;;-148.15;100.00;61821.78;4972315;28;20747;-88
2023/10/24 04:26:09;;;;;;;5.40;4.25;;;;;;;-148.15;100.00;61821.78;4969303;28;20027;-87
2023/10/24 04:28:34;;;;;;;6.43;4.50;;;;;;;-148.15;100.00;61821.78;4951161;28;20034;-88
2023/10/24 04:31:00;;;;;;;7.77;4.70;;;;;;;-148.15;100.00;61821.78;4956493;28;20663;-87
2023/10/24 04:33:25;;;;;;;6.73;5.10;;;;;;;-148.15;100.00;61821.78;4972521;28;20034;-88
2023/10/24 04:35:51;;;;;;;8.13;5.50;;;;;;;-148.15;100.00;61821.78;4977866;28;20506;-87
2023/10/24 04:38:19;;;;;;;6.60;4.90;;;;;;;-148.15;100.00;61821.78;4971302;28;20114;-88
2023/10/24 04:40:45;;;;;;;6.30;4.70;;;;;;;-148.15;100.00;61821.78;4970458;28;20027;-89
2023/10/24 04:43:11;;;;;;;6.47;4.40;;;;;;;-148.15;100.00;61821.78;4971192;28;20105;-90
2023/10/24 04:45:37;;;;;;;6.60;4.93;;;;;;;-148.15;100.00;61821.78;4954377;28;20383;-90
2023/10/24 04:48:03;;;;;;;6.80;4.72;;;;;;;-148.15;100.00;61821.78;4953675;28;20430;-89
2023/10/24 04:50:28;;;;;;;6.60;4.60;;;;;;;-148.15;100.00;61821.78;4971902;28;20088;-89
2023/10/24 04:52:55;;;;;;;5.40;4.37;;;;;;;-148.15;100.00;61821.78;4978158;23;20038;-88
2023/10/24 04:55:35;;;;;;;5.70;4.40;;;;;;;-148.15;100.00;61821.78;4954347;28;20117;-92
2023/10/24 04:58:26;;;;;;;4.63;4.20;;;;;;;-148.15;100.00;61821.78;4957021;28;20066;-91
2023/10/24 05:01:14;;;;;;;;;;;;;;;;;;;;;
2023/10/24 05:04:12;;;;;;;5.80;4.03;;;;;;;-148.15;100.00;61821.78;4958491;28;20039;-91
2023/10/24 05:06:44;;;;;;;7.53;4.50;;;;;;;-148.15;100.00;61821.78;4903745;28;20484;-92
2023/10/24 05:11:51;;;;;;;5.93;3.95;;;;;;;-148.15;100.00;61821.78;5191139;23;20062;-92
2023/10/24 05:14:20;;;;;;;4.70;3.83;;;;;;;-148.15;100.00;61821.78;4989485;28;20034;-91
2023/10/24 05:19:39;;;;;;;5.80;3.50;;;;;;;-148.15;100.00;61821.78;4987417;28;20049;-92
2023/10/24 05:22:04;;;;;;;4.78;3.53;;;;;;;-148.15;100.00;61821.78;4981806;28;20026;-91
2023/10/24 05:24:31;;;;;;;4.33;3.67;;;;;;;-148.15;100.00;61821.78;4991875;28;20387;-91
2023/10/24 05:26:59;;;;;;;3.40;3.10;;;;;;;-148.15;100.00;61821.78;4990721;28;20030;-91
2023/10/24 05:29:37;;;;;;;6.32;3.10;;;;;;;-148.15;100.00;61821.78;4989646;28;20088;-90
2023/10/24 05:32:03;;;;;;;3.85;3.17;;;;;;;-148.15;100.00;61821.78;4990780;28;20027;-91
2023/10/24 05:34:30;;;;;;;3.47;3.10;;;;;;;-148.15;100.00;61821.78;4983403;28;20028;-89
2023/10/24 05:36:56;;;;;;;5.07;3.10;;;;;;;-148.15;100.00;61821.78;4954170;28;20026;-90
2023/10/24 05:39:24;;;;;;;6.95;2.90;;;;;;;-148.15;100.00;61821.78;4987146;28;20034;-90
2023/10/24 05:41:49;;;;;;;3.60;2.50;;;;;;;-148.15;100.00;61821.78;4991384;28;20478;-89
2023/10/24 05:44:15;;;;;;;3.70;2.70;;;;;;;-148.15;100.00;61821.78;4991742;28;20293;-91
2023/10/24 05:46:40;;;;;;;3.03;2.73;;;;;;;-148.15;100.00;61821.78;4979058;28;20023;-91
2023/10/24 05:49:06;;;;;;;4.57;3.20;;;;;;;-148.15;100.00;61821.78;4970458;28;20554;-91
2023/10/24 05:51:32;;;;;;;3.43;3.10;;;;;;;-148.15;100.00;61821.78;4972207;28;20077;-91
2023/10/24 05:54:17;;;;;;;;;;;;;;;;;;;;;
2023/10/24 05:57:08;;;;;;;5.00;2.58;;;;;;;-148.15;100.00;61821.78;4989867;28;20090;-93
2023/10/24 06:00:13;;;;;;;6.68;3.03;;;;;;;-148.15;100.00;61821.78;4991570;28;20026;-93
2023/10/24 06:02:39;;;;;;;2.90;2.60;;;;;;;-148.15;100.00;61821.78;4956780;28;20042;-94
2023/10/24 06:05:05;;;;;;;5.20;3.25;;;;;;;-148.15;100.00;61821.78;4975742;28;20033;-90
2023/10/24 06:07:30;;;;;;;3.00;2.70;;;;;;;-148.15;100.00;61821.78;4995782;23;20046;-91
2023/10/24 06:09:57;;;;;;;3.10;2.60;;;;;;;-148.15;100.00;61821.78;4969347;28;20049;-90
2023/10/24 06:12:29;;;;;;;3.43;2.37;;;;;;;-148.15;100.00;61821.78;4970444;28;20031;-90
2023/10/24 06:14:54;;;;;;;4.47;2.30;;;;;;;-148.15;100.00;61821.78;4957091;28;20055;-90
2023/10/24 06:17:23;;;;;;;3.20;2.30;;;;;;;-148.15;100.00;61821.78;4971248;28;20546;-91
2023/10/24 06:19:49;;;;;;;2.97;2.25;;;;;;;-148.15;100.00;61821.78;4955219;28;20035;-90
2023/10/24 06:22:15;;;;;;;2.88;2.30;;;;;;;-148.15;100.00;61821.78;4955481;28;20049;-90
2023/10/24 06:24:47;;;;;;;3.78;2.80;;;;;;;-148.15;100.00;61821.78;4956737;29;20035;-92
2023/10/24 06:27:13;;;;;;;2.60;2.30;;;;;;;-148.15;100.00;61821.78;4962355;29;20035;-90
2023/10/24 06:30:35;;;;;;;3.03;2.70;;;;;;;-148.15;100.00;61821.78;4953020;28;20032;-89
2023/10/24 06:33:10;;;;;;;3.30;2.70;;;;;;;-148.15;100.00;61821.78;4949482;29;20798;-90
2023/10/24 06:35:50;;;;;;;2.92;2.55;;;;;;;-148.15;100.00;61821.78;4954828;28;20466;-89
2023/10/24 06:38:46;;;;;;;3.92;2.90;;;;;;;-148.15;100.00;61821.78;4937872;29;20039;-90
2023/10/24 06:41:25;;;;;;;5.75;2.92;;;;;;;-148.15;100.00;61821.78;4881647;29;20051;-90
2023/10/24 06:51:24;;;;;;;3.20;2.90;;;;;;;-148.15;100.00;61821.78;4983357;28;21347;-90
2023/10/24 06:53:49;;;;;;;4.20;3.22;;;;;;;-148.15;100.00;61821.78;5161227;23;20050;-90
2023/10/24 06:56:27;;;;;;;4.78;3.58;;;;;;;-148.15;100.00;61821.78;4961549;28;20031;-90
2023/10/24 06:58:52;;;;;;;5.82;3.35;;;;;;;-148.15;100.00;61821.78;4954076;29;20038;-96
2023/10/24 07:01:21;;;;;;;4.90;3.77;;;;;;;-148.15;100.00;61821.78;4923155;29;20040;-87
2023/10/24 07:03:47;;;;;;;4.63;3.45;;;;;;;-148.15;100.00;61821.78;4953956;28;20085;-87
2023/10/24 07:06:12;;;;;;;6.25;3.85;;;;;;;-148.15;100.00;61821.78;4954059;28;20030;-88
2023/10/24 07:08:38;;;;;;;5.40;4.00;;;;;;;-148.15;100.00;61821.78;4935562;29;20019;-86
2023/10/24 07:11:03;;;;;;;8.37;3.90;;;;;;;-148.15;100.00;61821.78;4948651;29;20027;-85
2023/10/24 07:13:29;;;;;;;5.75;3.80;;;;;;;-148.15;100.00;61821.78;4940740;29;20020;-86
2023/10/24 07:15:54;;;;;;;4.97;3.70;;;;;;;-148.15;100.00;61821.78;4950310;29;20023;-85
2023/10/24 07:18:19;;;;;;;8.13;4.00;;;;;;;-148.15;100.00;61821.78;4952766;28;20035;-87
2023/10/24 07:20:45;;;;;;;5.83;3.90;;;;;;;-148.15;100.00;61821.78;4951415;28;20391;-85
2023/10/24 07:23:10;;;;;;;10.73;4.67;;;;;;;-148.15;100.00;61821.78;4945644;29;20066;-87
2023/10/24 07:25:35;;;;;;;6.80;4.00;;;;;;;-148.15;100.00;61821.78;4953225;29;20039;-85
2023/10/24 07:28:02;;;;;;;7.17;4.20;;;;;;;-148.15;100.00;61821.78;4946096;28;20043;-87
2023/10/24 07:30:27;;;;;;;8.67;3.57;;;;;;;-148.15;100.00;61821.78;4949956;28;20030;-87
2023/10/24 07:32:54;;;;;;;5.67;3.93;;;;;;;-148.15;100.00;61821.78;4957696;28;20286;-86
2023/10/24 07:35:20;;;;;;;6.15;4.22;;;;;;;-148.15;100.00;61821.78;4949741;28;20487;-86
2023/10/24 07:37:46;;;;;;;9.33;4.40;;;;;;;-148.15;100.00;61821.78;4959393;28;20040;-86
2023/10/24 07:40:11;;;;;;;7.15;4.65;;;;;;;-148.15;100.00;61821.78;4952976;28;20022;-86
2023/10/24 07:42:37;;;;;;;7.63;4.50;;;;;;;-148.15;100.00;61821.78;4936323;29;20490;-86
2023/10/24 07:45:02;;;;;;;7.27;4.87;;;;;;;-148.15;100.00;61821.78;4950253;28;20019;-84
2023/10/24 07:47:27;;;;;;;8.38;5.10;;;;;;;-148.15;100.00;61821.78;4950501;28;20900;-85
2023/10/24 07:49:55;;;;;;;5.30;4.53;;;;;;;-148.15;100.00;61821.78;4926380;29;20118;-85
2023/10/24 07:52:20;;;;;;;8.57;4.95;;;;;;;-148.15;100.00;61821.78;4917158;29;20028;-87
2023/10/24 07:54:45;;;;;;;7.00;4.53;;;;;;;-148.15;100.00;61821.78;4934455;29;20027;-87
2023/10/24 07:57:12;;;;;;;6.63;4.60;;;;;;;-148.15;100.00;61821.78;4932421;29;20055;-87
2023/10/24 07:59:37;;;;;;;7.70;4.53;;;;;;;-148.15;100.00;61821.78;4952072;28;20023;-87
2023/10/24 08:02:03;;;;;;;6.37;4.50;;;;;;;-148.15;100.00;61821.78;4951248;29;20043;-88
2023/10/24 08:04:28;;;;;;;6.23;5.33;;;;;;;-148.15;100.00;61821.78;4952212;29;20031;-86
2023/10/24 08:06:53;;;;;;;9.90;5.63;;;;;;;-148.15;100.00;61821.78;4927056;28;20070;-87
2023/10/24 08:09:19;;;;;;;8.60;5.40;;;;;;;-148.15;100.00;61821.78;4952851;28;20027;-87
2023/10/24 08:11:44;;;;;;;7.83;5.27;;;;;;;-148.15;100.00;61821.78;4952846;28;20039;-86
2023/10/24 08:14:09;;;;;;;7.47;5.43;;;;;;;-148.15;100.00;61821.78;4950083;28;20034;-88
2023/10/24 08:16:35;;;;;;;11.70;6.40;;;;;;;-148.15;100.00;61821.78;4933314;29;20027;-88
2023/10/24 08:19:01;;;;;;;8.88;6.10;;;;;;;-148.15;100.00;61821.78;4931496;29;20102;-89
2023/10/24 08:21:26;;;;;;;9.83;5.87;;;;;;;-148.15;100.00;61821.78;4934579;29;20236;-89
2023/10/24 08:23:53;;;;;;;11.70;5.83;;;;;;;-148.15;100.00;61821.78;4951432;29;20395;-90
2023/10/24 08:26:19;;;;;;;8.48;5.90;;;;;;;-148.15;100.00;61821.78;4948463;28;20065;-89
2023/10/24 08:28:45;;;;;;;8.73;5.53;;;;;;;-148.15;100.00;61821.78;4935299;28;20497;-91
2023/10/24 08:31:10;;;;;;;7.70;5.37;;;;;;;-148.15;100.00;61821.78;4932857;29;20114;-88
2023/10/24 08:33:35;;;;;;;6.70;5.40;;;;;;;-148.15;100.00;61821.78;4953173;28;20051;-88
2023/10/24 08:36:01;;;;;;;6.50;4.33;;;;;;;-148.15;100.00;61821.78;4951240;28;20036;-88
2023/10/24 08:38:42;;;;;;;8.03;4.77;;;;;;;-148.15;100.00;61821.78;4934872;29;20028;-89
2023/10/24 08:41:26;;;;;;;7.65;4.43;;;;;;;-148.15;100.00;61821.78;4955724;23;20482;-88
2023/10/24 08:43:55;;;;;;;7.40;3.92;;;;;;;-148.15;100.00;61821.78;4958318;28;20031;-92
2023/10/24 08:46:34;;;;;;;6.68;3.83;;;;;;;-148.15;100.00;61821.78;4960010;28;20486;-89
2023/10/24 08:49:03;;;;;;;9.03;4.90;;;;;;;-148.15;100.00;61821.78;4962688;28;20082;-88
2023/10/24 08:51:29;;;;;;;6.00;4.30;;;;;;;-148.15;100.00;61821.78;4952782;28;20303;-88
2023/10/24 08:53:54;;;;;;;7.22;4.80;;;;;;;-148.15;100.00;61821.78;4971264;28;20031;-89
2023/10/24 08:56:20;;;;;;;6.80;4.30;;;;;;;-148.15;100.00;61821.78;4952529;28;20039;-89
2023/10/24 08:58:47;;;;;;;9.35;6.00;;;;;;;-148.15;100.00;61821.78;4937933;29;20143;-88
2023/10/24 09:01:13;;;;;;;7.35;6.15;;;;;;;-148.15;100.00;61821.78;4962031;28;20027;-90
2023/10/24 09:03:39;;;;;;;9.07;6.07;;;;;;;-148.15;100.00;61821.78;4957391;28;20033;-90
2023/10/24 09:06:06;;;;;;;8.95;6.10;;;;;;;10.39;100.00;100231.41;4992759;23;20137;-90
2023/10/24 09:08:34;;;;;;;6.05;5.35;;;;;;;-148.15;100.00;61821.78;4974565;28;20034;-94
2023/10/24 09:10:59;;;;;;;7.63;6.15;;;;;;;-148.15;100.00;61821.78;4976677;28;20035;-92
2023/10/24 09:13:25;;;;;;;7.30;5.40;;;;;;;11.58;100.00;100154.97;4976173;28;20424;-91
2023/10/24 09:16:07;;;;;;;7.13;4.80;;;;;;;11.63;100.00;100144.16;4971278;28;20052;-89
2023/10/24 09:18:37;;;;;;;8.60;5.30;;;;;;;11.63;100.00;100144.16;4973069;28;20042;-91
2023/10/24 09:21:04;;;;;;;7.07;5.30;;;;;;;11.63;100.00;100144.16;4954671;28;20030;-90
2023/10/24 09:23:32;;;;;;;8.75;5.35;;;;;;;12.05;100.00;100150.00;4973832;28;20031;-91
2023/10/24 09:26:00;;;;;;;5.57;4.97;;;;;;;12.05;100.00;100150.00;4955199;28;20507;-91
2023/10/24 09:28:25;;;;;;;7.97;4.68;;;;;;;12.05;100.00;100150.00;4971293;28;20065;-90
2023/10/24 09:30:51;;;;;;;7.27;5.47;;;;;;;12.05;100.00;100150.00;4974182;28;20038;-90
2023/10/24 09:33:16;;;;;;;10.80;5.87;;;;;;;12.05;100.00;100150.00;4973969;28;20043;-91
2023/10/24 09:35:42;;;;;;;6.43;5.30;;;;;;;12.05;100.00;100150.00;4955140;28;20403;-91
2023/10/24 09:38:08;;;;;;;7.87;4.70;;;;;;;12.05;100.00;100150.00;4972855;28;20038;-91
2023/10/24 09:40:39;;;;;;;7.82;4.70;;;;;;;12.05;100.00;100150.00;4956586;28;20027;-92
2023/10/24 09:43:22;;;;;;;5.20;4.70;;;;;;;12.05;100.00;100150.00;4970694;28;20019;-90
2023/10/24 09:45:50;;;;;;;5.70;4.13;;;;;;;12.05;100.00;100150.00;4954963;28;20023;-89
2023/10/24 09:48:21;;;;;;;9.38;4.38;;;;;;;12.05;100.00;100150.00;4955214;28;20045;-92
2023/10/24 09:50:48;;;;;;;7.40;4.73;;;;;;;-148.15;100.00;61821.78;4958117;28;20023;-92
2023/10/24 09:53:13;;;;;;;5.18;4.47;;;;;;;-148.15;100.00;61821.78;4975373;28;20049;-91
2023/10/24 09:55:48;;;;;;;7.72;4.57;;;;;;;-148.15;100.00;61821.78;4973729;28;20046;-92
2023/10/24 09:58:15;;;;;;;6.47;4.10;;;;;;;-148.15;100.00;61821.78;4955441;28;20027;-91
2023/10/24 10:00:41;;;;;;;5.40;4.30;;;;;;;-148.15;100.00;61821.78;4970743;28;20319;-90
2023/10/24 10:03:09;;;;;;;7.80;4.35;;;;;;;;;;4965980;28;20047;-92
2023/10/24 10:05:36;;;;;;;4.53;4.10;;;;;;;-148.15;100.00;61821.78;4956367;28;20023;-91
2023/10/24 10:08:04;;;;;;;8.05;4.38;;;;;;;-148.15;100.00;61821.78;4979976;28;20470;-93
2023/10/24 10:10:31;;;;;;;6.65;4.20;;;;;;;-148.15;100.00;61821.78;4971494;28;20031;-90
2023/10/24 10:13:02;;;;;;;6.87;4.17;;;;;;;-148.15;100.00;61821.78;4970596;28;20039;-91
2023/10/24 10:16:21;;;;;;;7.07;4.00;;;;;;;-148.15;100.00;49663.50;4958825;28;20877;-92
2023/10/24 10:18:47;;;;;;;6.00;3.67;;;;;;;-148.15;100.00;61821.78;4923479;29;20047;-90
2023/10/24 10:21:33;;;;;;;5.17;3.33;;;;;;;-148.15;100.00;61821.78;4938745;29;20522;-91
2023/10/24 10:24:07;;;;;;;5.15;3.60;;;;;;;-148.15;100.00;61821.78;4967716;28;20041;-90
2023/10/24 10:27:12;;;;;;;5.50;3.33;;;;;;;-148.15;100.00;61821.78;4945385;29;20027;-89
2023/10/24 10:29:55;;;;;;;7.88;3.78;;;;;;;12.05;100.00;100150.00;4978012;28;20027;-90
2023/10/24 10:32:47;;;;;;;5.20;3.42;;;;;;;12.05;100.00;100150.00;4968781;28;20094;-91
2023/10/24 10:35:13;;;;;;;5.53;3.50;;;;;;;12.05;100.00;100150.00;4957087;28;20050;-90
2023/10/24 10:37:39;;;;;;;6.20;3.05;;;;;;;12.05;100.00;100150.00;4968888;28;20081;-90
2023/10/24 10:40:14;;;;;;;5.80;3.30;;;;;;;-148.15;100.00;77271.94;4957185;28;20098;-86
2023/10/24 10:42:50;;;;;;;6.20;3.10;;;;;;;-147.82;100.00;100150.00;4971267;28;20360;-88
2023/10/24 10:45:29;;;;;;;5.83;3.13;;;;;;;-148.15;100.00;61821.78;4967604;28;20305;-90
2023/10/24 10:47:57;;;;;;;5.65;3.10;;;;;;;-148.15;100.00;61821.78;4955768;28;20023;-90
2023/10/24 10:50:34;;;;;;;5.35;3.30;;;;;;;-148.15;100.00;61821.78;4964413;28;20146;-89
2023/10/24 10:53:27;;;;;;;4.90;3.30;;;;;;;-148.15;100.00;61821.78;4971599;28;20118;-91
2023/10/24 10:59:39;;;;;;;4.37;3.97;;;;;;;-148.15;100.00;61821.78;4992493;28;20548;-92
2023/10/24 11:08:41;;;;;;;4.55;3.80;;;;;;;-148.15;100.00;63830.38;5412331;23;20085;-90
2023/10/24 11:11:23;;;;;;;9.80;4.35;;;;;;;-148.15;100.00;61821.78;4975426;28;20534;-91
2023/10/24 11:14:20;;;;;;;6.97;4.38;;;;;;;-148.15;100.00;61821.78;4958404;28;20511;-91
2023/10/24 11:17:03;;;;;;;7.23;4.57;;;;;;;-148.15;100.00;61821.78;4969237;28;20077;-90
2023/10/24 11:19:28;;;;;;;8.43;4.80;;;;;;;-148.15;100.00;61821.78;4976458;28;20337;-89
2023/10/24 11:21:57;;;;;;;6.40;5.25;;;;;;;-148.15;100.00;61821.78;4974976;28;20573;-88
2023/10/24 11:24:25;;;;;;;8.40;4.68;;;;;;;-148.15;100.00;61821.78;4955004;28;20035;-89
2023/10/24 11:27:56;;;;;;;;;;;;;;;;;;;;;
2023/10/24 11:30:36;;;;;;;8.90;4.93;;;;;;;-148.15;100.00;61821.78;4970987;28;20486;-91
2023/10/24 11:33:02;;;;;;;8.70;4.68;;;;;;;-148.15;100.00;61821.78;4971831;28;20695;-90
2023/10/24 11:35:29;;;;;;;11.52;4.90;;;;;;;-148.15;100.00;61821.78;4948816;28;20031;-91
2023/10/24 11:37:54;;;;;;;6.17;4.03;;;;;;;-148.15;100.00;61821.78;4970399;28;20038;-90
2023/10/24 11:40:19;;;;;;;5.97;4.37;;;;;;;-148.15;100.00;61821.78;4973132;28;20381;-89
2023/10/24 11:42:45;;;;;;;7.67;4.30;;;;;;;-148.15;100.00;61821.78;4973925;28;20081;-91